Briefing drone pour Sandillon

Rechercher une autre localisation

Conditions de vol :


Nous sommes le : Mercredi 14 avril 2021
Il est 01:25 UTC (03:25 LT)

Lever de soleil : 04:37 UTC (06:37 LT)
Coucher de soleil : 19:06 UTC (21:06 LT)

Météo

L'essentiel des conditions de vol

VIGILANCE MÉTÉO FRANCE - Loiret (45)
Pas de vigilances particulieres
CARTE TEMSI
CARTES DES FRONTS
METAR de LFOJ
LFOJ 140100Z AUTO 04004KT CAVOK M01/M05 Q1029

Date d'émission: 14/04/2021
Heure d'émission: 01:00 UTC
Vent: 040° pour 4 KT (7 km/h)
Visibilité horizontale: > 10 km
Plafond : Plafond et visibilité OK (CAVOK)
Température: -1 °C
Point de rosée: -5 °C
Humidité: 74%
Pression (QNH): 1029 hPa
TAF de LFOJ
LFOJ 131641Z 1316/1415 CNL

Conditions prévues :

Heure d'émission : Bulletin éffectué le 13 à 16:00 UTC
Prévision : Valide du 13 a 16:00 UTC au 14 a 15:00 UTC
Nuages : à 0ft (0 m)
WEBCAM POUR SANDILLON

Réglementation

Voler en sécurité

CARTES AERONAUTIQUE 1/500.000
CARTES VAC (LFOJ)
SUP AIP




Chargement des AIP...
NOTAM (SANDILLON + Terrain à proximité / FIR )




Chargement des NOTAMS...
CONTACT PREFECTURE 45


Avertissement : Les données mises à disposition sont indicatives. Oxygène Drone ne pourra être tenu responsable de dégâts causés aux biens et aux personnes.